createdAt,value
2022-08-25T00:01:17.975Z,2.75
2022-08-25T00:03:45.155Z,2.75
2022-08-25T00:06:13.015Z,2.83
2022-08-25T00:08:41.000Z,3.05
2022-08-25T00:11:11.982Z,3.30
2022-08-25T00:13:44.079Z,3.53
2022-08-25T00:16:12.154Z,3.65
2022-08-25T00:18:41.019Z,3.97
2022-08-25T00:21:09.311Z,2.65
2022-08-25T00:23:36.051Z,2.92
2022-08-25T00:26:02.523Z,2.80
2022-08-25T00:28:30.251Z,3.10
2022-08-25T00:30:58.878Z,3.00
2022-08-25T00:33:26.200Z,4.22
2022-08-25T00:35:53.443Z,4.10
2022-08-25T00:38:20.875Z,2.97
2022-08-25T00:41:06.121Z,4.38
2022-08-25T00:43:41.635Z,3.80
2022-08-25T00:46:13.963Z,3.53
2022-08-25T00:48:42.351Z,3.70
2022-08-25T00:51:11.636Z,4.28
2022-08-25T00:53:39.926Z,3.45
2022-08-25T00:56:06.582Z,3.78
2022-08-25T00:58:35.351Z,3.00
2022-08-25T01:01:02.233Z,2.83
2022-08-25T01:03:33.064Z,3.10
2022-08-25T01:06:04.658Z,2.63
2022-08-25T01:08:33.059Z,3.25
2022-08-25T01:11:05.451Z,3.00
2022-08-25T01:13:42.588Z,3.00
2022-08-25T01:16:09.536Z,3.88
2022-08-25T01:18:47.155Z,3.47
2022-08-25T01:21:14.198Z,3.10
2022-08-25T01:23:42.063Z,3.67
2022-08-25T01:26:13.813Z,3.35
2022-08-25T01:29:02.811Z,3.72
2022-08-25T01:31:30.207Z,3.92
2022-08-25T01:33:58.286Z,3.03
2022-08-25T01:36:27.452Z,3.30
2022-08-25T01:38:54.383Z,3.53
2022-08-25T01:41:51.395Z,3.38
2022-08-25T01:44:18.741Z,3.47
2022-08-25T01:46:45.251Z,3.22
2022-08-25T01:49:12.555Z,2.97
2022-08-25T01:51:44.282Z,3.95
2022-08-25T01:54:10.740Z,4.05
2022-08-25T01:56:37.574Z,3.13
2022-08-25T01:59:04.841Z,4.40
2022-08-25T02:01:31.368Z,2.65
2022-08-25T02:03:59.053Z,4.15
2022-08-25T02:06:34.840Z,5.00
2022-08-25T02:09:07.695Z,4.10
2022-08-25T02:11:35.939Z,4.75
2022-08-25T02:14:02.293Z,3.40
2022-08-25T02:16:32.185Z,4.18
2022-08-25T02:18:59.431Z,3.17
2022-08-25T02:21:26.091Z,4.03
2022-08-25T02:23:53.787Z,4.05
2022-08-25T02:26:20.353Z,4.32
2022-08-25T02:28:48.246Z,3.78
2022-08-25T02:31:17.164Z,5.22
2022-08-25T02:33:43.735Z,4.13
2022-08-25T02:36:10.276Z,3.88
2022-08-25T02:38:37.824Z,3.65
2022-08-25T02:41:12.462Z,4.72
2022-08-25T02:46:06.263Z,3.78
2022-08-25T02:48:33.530Z,4.47
2022-08-25T02:51:02.318Z,4.20
2022-08-25T02:53:29.703Z,4.00
2022-08-25T02:55:56.432Z,4.13
2022-08-25T02:58:24.088Z,3.28
2022-08-25T03:00:50.730Z,4.70
2022-08-25T03:03:17.689Z,4.15
2022-08-25T03:05:44.615Z,4.00
2022-08-25T03:08:11.751Z,4.93
2022-08-25T03:10:38.668Z,5.03
2022-08-25T03:13:05.916Z,4.40
2022-08-25T03:15:32.958Z,4.35
2022-08-25T03:17:59.897Z,5.03
2022-08-25T03:20:28.170Z,5.15
2022-08-25T03:22:54.613Z,4.50
2022-08-25T03:25:40.086Z,7.00
2022-08-25T03:28:07.742Z,4.90
2022-08-25T03:30:34.694Z,5.97
2022-08-25T03:33:01.475Z,5.88
2022-08-25T03:35:28.194Z,5.13
2022-08-25T03:37:58.376Z,4.53
2022-08-25T03:40:25.479Z,4.78
2022-08-25T03:42:52.611Z,6.60
2022-08-25T03:45:19.473Z,4.32
2022-08-25T03:47:48.071Z,5.10
2022-08-25T03:50:17.100Z,4.47
2022-08-25T03:52:43.479Z,4.95
2022-08-25T03:55:12.358Z,4.90
2022-08-25T03:57:39.632Z,5.03
2022-08-25T04:00:08.937Z,5.28
2022-08-25T04:02:35.652Z,5.03
2022-08-25T04:05:02.489Z,6.32
2022-08-25T04:07:29.281Z,4.82
2022-08-25T04:09:56.192Z,4.78
2022-08-25T04:12:23.291Z,5.50
2022-08-25T04:14:50.337Z,5.82
2022-08-25T04:17:17.384Z,6.63
2022-08-25T04:19:44.443Z,5.10
2022-08-25T04:22:11.086Z,6.13
2022-08-25T04:24:39.867Z,6.30
2022-08-25T04:27:06.568Z,5.43
2022-08-25T04:29:33.468Z,5.30
2022-08-25T04:31:59.897Z,6.95
2022-08-25T04:34:29.336Z,7.60
2022-08-25T04:36:58.569Z,6.13
2022-08-25T04:39:24.943Z,7.20
2022-08-25T04:41:51.888Z,6.45
2022-08-25T04:44:18.320Z,7.63
2022-08-25T04:46:44.671Z,6.10
2022-08-25T04:49:12.417Z,5.65
2022-08-25T04:51:41.622Z,7.43
2022-08-25T04:54:12.802Z,5.93
2022-08-25T04:56:41.517Z,7.55
2022-08-25T04:59:13.098Z,6.30
2022-08-25T05:01:42.182Z,6.05
2022-08-25T05:04:27.771Z,7.60
2022-08-25T05:06:56.607Z,7.93
2022-08-25T05:09:23.169Z,6.75
2022-08-25T05:11:49.751Z,8.65
2022-08-25T05:14:18.764Z,6.20
2022-08-25T05:16:46.243Z,9.15
2022-08-25T05:19:13.025Z,5.50
2022-08-25T05:21:40.372Z,7.38
2022-08-25T05:24:07.713Z,6.72
2022-08-25T05:26:36.432Z,8.05
2022-08-25T05:29:05.063Z,7.32
2022-08-25T05:31:32.926Z,7.57
2022-08-25T05:34:00.328Z,7.60
2022-08-25T05:36:28.560Z,8.02
2022-08-25T05:38:55.154Z,7.32
2022-08-25T05:41:26.837Z,5.85
2022-08-25T05:43:53.209Z,7.13
2022-08-25T05:46:21.059Z,7.57
2022-08-25T05:48:48.370Z,6.78
2022-08-25T05:51:15.900Z,7.82
2022-08-25T05:53:44.914Z,8.05
2022-08-25T05:56:13.825Z,5.50
2022-08-25T05:58:42.451Z,8.73
2022-08-25T06:01:27.734Z,7.90
2022-08-25T06:03:54.424Z,6.65
2022-08-25T06:06:23.617Z,8.63
2022-08-25T06:08:50.634Z,6.43
2022-08-25T06:11:17.450Z,12.93
2022-08-25T06:13:44.164Z,4.78
2022-08-25T06:16:10.638Z,8.02
2022-08-25T06:18:37.097Z,6.50
2022-08-25T06:21:12.963Z,7.43
2022-08-25T06:23:40.672Z,8.32
2022-08-25T06:26:10.943Z,7.85
2022-08-25T06:28:44.556Z,7.65
2022-08-25T06:31:11.690Z,9.50
2022-08-25T06:33:38.131Z,11.40
2022-08-25T06:36:04.727Z,10.70
2022-08-25T06:38:32.632Z,8.20
2022-08-25T06:41:05.471Z,8.68
2022-08-25T06:43:33.787Z,11.77
2022-08-25T06:46:09.423Z,9.55
2022-08-25T06:48:36.232Z,9.68
2022-08-25T06:51:06.839Z,10.50
2022-08-25T06:53:33.928Z,8.82
2022-08-25T06:56:05.921Z,9.23
2022-08-25T06:58:33.794Z,9.13
2022-08-25T07:01:09.696Z,9.75
2022-08-25T07:03:42.833Z,12.25
2022-08-25T07:06:09.812Z,11.10
2022-08-25T07:08:37.511Z,8.77
2022-08-25T07:11:16.128Z,10.45
2022-08-25T07:13:43.830Z,10.35
2022-08-25T07:16:11.822Z,8.93
2022-08-25T07:18:38.540Z,10.50
2022-08-25T07:21:05.704Z,10.82
2022-08-25T07:23:36.057Z,9.80
2022-08-25T07:26:36.275Z,8.70
2022-08-25T07:29:06.466Z,10.57
2022-08-25T07:31:34.032Z,10.00
2022-08-25T07:34:18.948Z,10.95
2022-08-25T07:36:45.650Z,9.70
2022-08-25T07:39:12.107Z,8.90
2022-08-25T07:41:41.285Z,10.55
2022-08-25T07:44:09.268Z,9.38
2022-08-25T07:46:35.751Z,9.85
2022-08-25T07:49:02.806Z,8.93
2022-08-25T07:51:29.486Z,10.85
2022-08-25T07:53:56.155Z,11.27
2022-08-25T07:56:23.903Z,14.18
2022-08-25T07:58:51.015Z,8.52
2022-08-25T08:01:20.011Z,8.07
2022-08-25T08:03:51.110Z,10.23
2022-08-25T08:06:22.322Z,9.50
2022-08-25T08:08:54.655Z,10.70
2022-08-25T08:11:34.543Z,8.77
2022-08-25T08:14:01.787Z,8.30
2022-08-25T08:16:30.103Z,8.65
2022-08-25T08:18:57.904Z,10.65
2022-08-25T08:21:27.507Z,9.02
2022-08-25T08:23:58.917Z,7.00
2022-08-25T08:26:36.521Z,7.25
2022-08-25T08:29:14.007Z,10.13
2022-08-25T08:31:40.642Z,10.43
2022-08-25T08:34:15.939Z,8.13
2022-08-25T08:36:42.302Z,8.25
2022-08-25T08:39:11.707Z,8.73
2022-08-25T08:42:11.390Z,9.75
2022-08-25T08:44:47.700Z,7.72
2022-08-25T08:47:33.849Z,7.90
2022-08-25T08:50:24.899Z,12.18
2022-08-25T08:53:22.121Z,8.80
2022-08-25T08:55:53.755Z,10.35
2022-08-25T08:58:32.711Z,10.40
2022-08-25T09:00:59.775Z,9.40
2022-08-25T09:03:42.349Z,8.95
2022-08-25T09:06:20.946Z,8.10
2022-08-25T09:08:47.415Z,9.13
2022-08-25T09:11:23.563Z,10.45
2022-08-25T09:14:30.606Z,8.63
2022-08-25T09:16:57.826Z,12.07
2022-08-25T09:19:41.949Z,10.93
2022-08-25T09:22:36.018Z,7.78
2022-08-25T09:25:22.125Z,8.93
2022-08-25T09:28:28.928Z,9.57
2022-08-25T09:31:16.823Z,8.38
2022-08-25T09:33:43.831Z,9.82
2022-08-25T09:36:10.902Z,7.78
2022-08-25T09:38:38.402Z,8.55
2022-08-25T09:41:06.462Z,7.80
2022-08-25T09:43:34.875Z,8.80
2022-08-25T09:46:12.893Z,6.60
2022-08-25T09:48:59.324Z,7.40
2022-08-25T09:51:38.148Z,7.65
2022-08-25T09:57:01.162Z,6.20
2022-08-25T09:59:35.210Z,7.57
2022-08-25T10:02:22.299Z,6.50
2022-08-25T10:04:48.793Z,6.20
2022-08-25T10:07:36.647Z,6.90
2022-08-25T10:10:15.839Z,7.15
2022-08-25T10:12:45.382Z,8.38
2022-08-25T10:15:33.714Z,7.20
2022-08-25T10:18:22.436Z,7.13
2022-08-25T10:21:04.855Z,7.75
2022-08-25T10:23:38.455Z,7.50
2022-08-25T10:26:13.254Z,7.60
2022-08-25T10:29:06.295Z,8.93
2022-08-25T10:31:56.462Z,5.78
2022-08-25T10:34:35.794Z,5.55
2022-08-25T10:37:32.894Z,8.18
2022-08-25T10:40:12.595Z,5.60
2022-08-25T10:42:57.519Z,6.78
2022-08-25T10:45:45.215Z,6.00
2022-08-25T10:48:45.414Z,6.13
2022-08-25T10:51:37.408Z,5.28
2022-08-25T10:54:20.003Z,4.40
2022-08-25T10:57:07.124Z,5.70
2022-08-25T10:59:55.662Z,6.25
2022-08-25T11:02:52.909Z,7.57
2022-08-25T11:05:59.046Z,5.50
2022-08-25T11:08:36.171Z,7.40
2022-08-25T11:11:05.908Z,5.82
2022-08-25T11:13:47.980Z,6.80
2022-08-25T11:16:20.223Z,6.03
2022-08-25T11:19:11.936Z,4.78
2022-08-25T11:22:11.223Z,5.88
2022-08-25T11:24:42.692Z,4.55
2022-08-25T11:27:16.655Z,5.65
2022-08-25T11:29:53.727Z,6.00
2022-08-25T11:32:22.739Z,4.50
2022-08-25T11:34:49.464Z,8.38
2022-08-25T11:37:26.815Z,5.18
2022-08-25T11:40:17.837Z,5.38
2022-08-25T11:43:00.266Z,6.10
2022-08-25T11:46:03.724Z,7.65
2022-08-25T11:48:55.105Z,6.25
2022-08-25T11:51:36.495Z,5.70
2022-08-25T11:54:17.989Z,7.07
2022-08-25T11:56:54.795Z,5.47
2022-08-25T11:59:49.887Z,7.93
2022-08-25T12:02:32.498Z,6.25
2022-08-25T12:04:59.002Z,7.27
2022-08-25T12:07:28.771Z,5.90
2022-08-25T12:09:55.193Z,6.25
2022-08-25T12:12:32.114Z,6.75
2022-08-25T12:15:20.487Z,5.53
2022-08-25T12:18:09.612Z,6.90
2022-08-25T12:20:53.665Z,7.93
2022-08-25T12:23:34.238Z,5.32
2022-08-25T12:26:39.963Z,5.18
2022-08-25T12:29:09.448Z,5.28
2022-08-25T12:32:14.607Z,6.65
2022-08-25T12:35:13.639Z,4.85
2022-08-25T12:38:11.104Z,6.03
2022-08-25T12:40:43.846Z,5.43
2022-08-25T12:43:25.423Z,6.15
2022-08-25T12:46:14.793Z,5.63
2022-08-25T12:49:11.271Z,5.35
2022-08-25T12:52:00.713Z,5.30
2022-08-25T12:54:47.552Z,7.82
2022-08-25T12:57:40.279Z,5.50
2022-08-25T13:03:30.932Z,5.57
2022-08-25T13:06:12.487Z,4.63
2022-08-25T13:09:19.087Z,6.45
2022-08-25T13:12:25.928Z,5.10
2022-08-25T13:14:55.435Z,4.63
2022-08-25T13:17:33.883Z,6.18
2022-08-25T13:20:13.108Z,5.55
2022-08-25T13:22:39.908Z,5.90
2022-08-25T13:25:06.699Z,6.05
2022-08-25T13:27:36.914Z,4.97
2022-08-25T13:30:05.258Z,6.30
2022-08-25T13:32:37.143Z,4.35
2022-08-25T13:35:17.636Z,4.57
2022-08-25T13:37:46.239Z,4.85
2022-08-25T13:40:24.500Z,3.97
2022-08-25T13:42:57.462Z,5.15
2022-08-25T13:45:28.682Z,3.15
2022-08-25T13:47:57.647Z,4.55
2022-08-25T13:50:27.235Z,5.70
2022-08-25T13:52:58.108Z,4.43
2022-08-25T13:55:50.758Z,5.85
2022-08-25T13:58:24.770Z,4.85
2022-08-25T14:01:22.733Z,5.78
2022-08-25T14:04:17.681Z,6.47
2022-08-25T14:06:44.195Z,6.45
2022-08-25T14:09:17.505Z,4.85
2022-08-25T14:11:48.170Z,5.57
2022-08-25T14:14:23.372Z,6.57
2022-08-25T14:16:54.231Z,5.32
2022-08-25T14:19:25.402Z,7.30
2022-08-25T14:21:56.859Z,5.65
2022-08-25T14:24:23.803Z,9.15
2022-08-25T14:26:53.884Z,5.88
2022-08-25T14:29:21.470Z,5.80
2022-08-25T14:31:48.277Z,5.30
2022-08-25T14:34:28.648Z,5.65
2022-08-25T14:36:55.864Z,6.03
2022-08-25T14:39:22.650Z,5.55
2022-08-25T14:41:53.192Z,7.03
2022-08-25T14:44:21.004Z,6.88
2022-08-25T14:46:53.974Z,6.40
2022-08-25T14:49:29.949Z,5.85
2022-08-25T14:52:01.104Z,6.47
2022-08-25T14:54:29.511Z,5.10
2022-08-25T14:56:57.246Z,6.03
2022-08-25T14:59:23.710Z,6.95
2022-08-25T15:01:50.667Z,8.02
2022-08-25T15:04:20.490Z,6.28
2022-08-25T15:06:49.524Z,5.18
2022-08-25T15:09:17.181Z,5.22
2022-08-25T15:11:47.227Z,9.68
2022-08-25T15:14:19.059Z,5.35
2022-08-25T15:16:57.426Z,6.18
2022-08-25T15:19:27.500Z,7.70
2022-08-25T15:21:58.055Z,5.93
2022-08-25T15:24:28.138Z,6.55
2022-08-25T15:26:57.872Z,6.18
2022-08-25T15:29:27.250Z,5.97
2022-08-25T15:31:54.263Z,7.10
2022-08-25T15:34:20.730Z,5.97
2022-08-25T15:36:47.725Z,4.43
2022-08-25T15:39:15.605Z,6.47
2022-08-25T15:41:45.963Z,8.73
2022-08-25T15:44:16.140Z,8.70
2022-08-25T15:46:47.090Z,6.53
2022-08-25T15:49:20.750Z,6.72
2022-08-25T15:51:52.757Z,5.75
2022-08-25T15:54:21.808Z,5.53
2022-08-25T15:56:48.254Z,8.60
2022-08-25T15:59:14.897Z,7.03
2022-08-25T16:01:41.935Z,8.98
2022-08-25T16:04:09.135Z,5.80
2022-08-25T16:06:37.479Z,5.40
2022-08-25T16:09:05.691Z,6.63
2022-08-25T16:11:34.768Z,5.70
2022-08-25T16:14:02.571Z,6.93
2022-08-25T16:16:31.040Z,7.82
2022-08-25T16:18:59.259Z,6.93
2022-08-25T16:21:30.088Z,7.10
2022-08-25T16:23:59.786Z,6.63
2022-08-25T16:26:30.091Z,9.27
2022-08-25T16:28:56.901Z,6.45
2022-08-25T16:31:24.394Z,7.45
2022-08-25T16:33:54.665Z,9.13
2022-08-25T16:38:54.088Z,6.78
2022-08-25T16:41:24.663Z,9.18
2022-08-25T16:43:52.030Z,8.02
2022-08-25T16:46:20.436Z,7.60
2022-08-25T16:48:47.355Z,8.07
2022-08-25T16:51:17.455Z,9.50
2022-08-25T16:54:04.994Z,8.15
2022-08-25T16:56:35.604Z,9.40
2022-08-25T16:59:04.491Z,9.23
2022-08-25T17:01:36.663Z,8.68
2022-08-25T17:04:04.963Z,9.07
2022-08-25T17:06:35.864Z,8.80
2022-08-25T17:09:03.088Z,8.85
2022-08-25T17:11:31.873Z,8.30
2022-08-25T17:14:00.576Z,9.75
2022-08-25T17:16:31.363Z,8.85
2022-08-25T17:19:06.146Z,10.35
2022-08-25T17:21:36.916Z,8.27
2022-08-25T17:24:04.964Z,8.73
2022-08-25T17:26:32.280Z,10.57
2022-08-25T17:29:01.282Z,10.55
2022-08-25T17:31:29.947Z,10.90
2022-08-25T17:33:57.171Z,10.68
2022-08-25T17:36:26.916Z,11.48
2022-08-25T17:38:54.431Z,10.10
2022-08-25T17:41:20.866Z,9.05
2022-08-25T17:43:47.620Z,11.30
2022-08-25T17:46:16.266Z,8.70
2022-08-25T17:48:44.074Z,11.82
2022-08-25T17:51:10.926Z,12.13
2022-08-25T17:53:38.406Z,12.77
2022-08-25T17:56:17.091Z,10.27
2022-08-25T17:58:45.293Z,13.18
2022-08-25T18:01:18.058Z,11.73
2022-08-25T18:03:44.638Z,14.05
2022-08-25T18:06:15.003Z,13.93
2022-08-25T18:08:43.996Z,11.95
2022-08-25T18:11:10.828Z,10.20
2022-08-25T18:13:38.581Z,10.90
2022-08-25T18:16:07.562Z,11.73
2022-08-25T18:18:35.164Z,13.40
2022-08-25T18:21:02.662Z,11.13
2022-08-25T18:23:29.782Z,10.05
2022-08-25T18:26:00.945Z,14.05
2022-08-25T18:28:28.676Z,10.93
2022-08-25T18:30:56.267Z,10.50
2022-08-25T18:33:23.076Z,10.30
2022-08-25T18:35:49.493Z,13.57
2022-08-25T18:38:35.011Z,9.85
2022-08-25T18:41:06.230Z,11.98
2022-08-25T18:43:33.687Z,8.45
2022-08-25T18:46:05.036Z,9.38
2022-08-25T18:48:31.913Z,12.20
2022-08-25T18:51:00.016Z,11.23
2022-08-25T18:53:36.747Z,10.35
2022-08-25T18:56:04.568Z,11.05
2022-08-25T18:58:31.659Z,8.35
2022-08-25T19:00:58.070Z,7.60
2022-08-25T19:03:25.024Z,9.48
2022-08-25T19:05:57.585Z,9.25
2022-08-25T19:08:25.166Z,10.85
2022-08-25T19:10:53.445Z,10.05
2022-08-25T19:13:22.417Z,10.90
2022-08-25T19:15:51.292Z,8.45
2022-08-25T19:18:18.459Z,9.20
2022-08-25T19:20:45.788Z,8.73
2022-08-25T19:23:13.116Z,8.18
2022-08-25T19:25:41.496Z,9.75
2022-08-25T19:28:11.967Z,9.02
2022-08-25T19:30:39.273Z,8.38
2022-08-25T19:33:42.674Z,9.52
2022-08-25T19:36:06.284Z,9.25
2022-08-25T19:38:37.754Z,7.72
2022-08-25T19:41:14.002Z,12.65
2022-08-25T19:43:55.213Z,9.95
2022-08-25T19:46:35.344Z,9.27
2022-08-25T19:49:08.339Z,7.85
2022-08-25T19:51:40.200Z,8.88
2022-08-25T19:54:09.061Z,9.40
2022-08-25T19:56:38.094Z,8.63
2022-08-25T19:59:11.680Z,9.52
2022-08-25T20:01:38.731Z,9.05
2022-08-25T20:04:06.880Z,12.68
2022-08-25T20:06:33.663Z,9.63
2022-08-25T20:09:00.713Z,8.85
2022-08-25T20:11:28.923Z,7.53
2022-08-25T20:13:59.250Z,7.80
2022-08-25T20:16:29.684Z,7.40
2022-08-25T20:18:56.182Z,8.48
2022-08-25T20:21:24.471Z,7.97
2022-08-25T20:24:09.268Z,9.65
2022-08-25T20:26:36.636Z,8.07
2022-08-25T20:29:05.152Z,11.15
2022-08-25T20:31:32.691Z,9.63
2022-08-25T20:34:01.040Z,8.85
2022-08-25T20:36:29.708Z,6.88
2022-08-25T20:38:56.071Z,8.25
2022-08-25T20:41:25.992Z,7.70
2022-08-25T20:43:52.550Z,8.45
2022-08-25T20:46:19.169Z,6.00
2022-08-25T20:48:46.139Z,7.93
2022-08-25T20:51:13.176Z,8.02
2022-08-25T20:53:42.315Z,8.07
2022-08-25T20:56:11.379Z,8.13
2022-08-25T20:58:39.168Z,7.43
2022-08-25T21:01:23.345Z,8.30
2022-08-25T21:03:50.410Z,7.75
2022-08-25T21:06:17.143Z,6.47
2022-08-25T21:08:46.738Z,7.43
2022-08-25T21:11:15.283Z,9.45
2022-08-25T21:13:42.018Z,8.43
2022-08-25T21:16:09.269Z,8.23
2022-08-25T21:18:36.503Z,8.85
2022-08-25T21:21:12.505Z,7.85
2022-08-25T21:23:39.486Z,10.05
2022-08-25T21:26:06.190Z,9.07
2022-08-25T21:28:34.970Z,9.15
2022-08-25T21:31:01.880Z,7.22
2022-08-25T21:33:28.760Z,7.65
2022-08-25T21:35:55.609Z,9.88
2022-08-25T21:38:21.996Z,7.68
2022-08-25T21:40:48.811Z,7.70
2022-08-25T21:43:15.352Z,8.38
2022-08-25T21:45:46.822Z,8.35
2022-08-25T21:48:14.092Z,6.80
2022-08-25T21:50:40.549Z,7.75
2022-08-25T21:53:09.091Z,9.35
2022-08-25T21:55:41.964Z,7.85
2022-08-25T21:58:08.435Z,8.05
2022-08-25T22:00:36.962Z,8.02
2022-08-25T22:03:03.900Z,9.60
2022-08-25T22:05:30.759Z,6.53
2022-08-25T22:07:57.111Z,7.63
2022-08-25T22:10:23.747Z,8.57
2022-08-25T22:12:50.699Z,10.50
2022-08-25T22:15:18.238Z,8.93
2022-08-25T22:17:48.123Z,7.63
2022-08-25T22:20:16.407Z,6.70
2022-08-25T22:22:42.908Z,9.48
2022-08-25T22:25:10.147Z,6.25
2022-08-25T22:27:36.916Z,7.68
2022-08-25T22:30:05.631Z,9.48
2022-08-25T22:32:32.391Z,8.45
2022-08-25T22:34:58.836Z,9.57
2022-08-25T22:37:25.501Z,8.05
2022-08-25T22:39:52.413Z,7.22
2022-08-25T22:42:18.911Z,7.78
2022-08-25T22:44:54.131Z,7.82
2022-08-25T22:47:21.456Z,8.20
2022-08-25T22:49:48.614Z,9.60
2022-08-25T22:52:15.008Z,8.45
2022-08-25T22:54:42.109Z,7.65
2022-08-25T22:57:08.740Z,7.45
2022-08-25T22:59:36.584Z,7.07
2022-08-25T23:02:03.512Z,7.82
2022-08-25T23:04:30.424Z,8.15
2022-08-25T23:06:56.883Z,7.68
2022-08-25T23:09:23.447Z,8.77
2022-08-25T23:11:51.991Z,8.40
2022-08-25T23:14:18.849Z,9.77
2022-08-25T23:16:45.303Z,7.93
2022-08-25T23:19:14.343Z,8.10
2022-08-25T23:22:00.729Z,8.70
2022-08-25T23:24:30.318Z,12.15
2022-08-25T23:27:02.193Z,7.47
2022-08-25T23:29:31.826Z,8.38
2022-08-25T23:31:58.292Z,8.45
2022-08-25T23:34:25.767Z,7.45
2022-08-25T23:36:52.738Z,9.55
2022-08-25T23:39:21.775Z,8.13
2022-08-25T23:41:49.406Z,9.45
2022-08-25T23:44:17.409Z,7.45
2022-08-25T23:46:45.359Z,7.15
2022-08-25T23:49:14.651Z,8.15
2022-08-25T23:51:44.849Z,8.00
2022-08-25T23:54:13.277Z,9.65
2022-08-25T23:56:42.448Z,7.90
2022-08-25T23:59:18.173Z,8.27
